Time;durP1;ratioP1;P1;durP2;ratioP2;P2;SDS_P1;SDS_P2;PMS_P1;PMS_P2;Temp;Humidity;BMP_temperature;BMP_pressure;BME280_temperature;BME280_humidity;BME280_pressure;Samples;Min_cycle;Max_cycle;Signal;HPM_P1;HPM_P2
2020/12/26 00:01:57;;;;;;;;;;;23.20;41.70;;;;;;1536120;74;1125;-57
2020/12/26 00:03:59;;;;;;;;;;;23.10;41.60;;;;;;1531656;74;708;-57
2020/12/26 00:06:01;;;;;;;;;;;23.20;41.50;;;;;;1531700;75;755;-55
2020/12/26 00:08:03;;;;;;;;;;;23.10;41.60;;;;;;1531985;74;754;-56
2020/12/26 00:10:05;;;;;;;;;;;23.20;41.60;;;;;;1533428;75;1934;-55
2020/12/26 00:12:07;;;;;;;;;;;23.10;41.70;;;;;;1538310;75;1169;-56
2020/12/26 00:14:09;;;;;;;;;;;23.10;41.70;;;;;;1528462;74;776;-55
2020/12/26 00:16:15;;;;;;;;;;;23.10;41.80;;;;;;1533983;75;703;-56
2020/12/26 00:18:15;;;;;;;;;;;23.10;41.80;;;;;;1537773;75;1612;-57
2020/12/26 00:20:18;;;;;;;;;;;23.20;41.80;;;;;;1530011;74;1145;-57
2020/12/26 00:22:20;;;;;;;;;;;23.10;41.80;;;;;;1538347;75;1542;-57
2020/12/26 00:24:22;;;;;;;;;;;23.10;41.70;;;;;;1528398;75;734;-57
2020/12/26 00:26:24;;;;;;;;;;;23.10;41.80;;;;;;1534386;74;686;-56
2020/12/26 00:28:26;;;;;;;;;;;23.20;42.00;;;;;;1530584;74;710;-57
2020/12/26 00:30:28;;;;;;;;;;;23.10;42.00;;;;;;1530434;74;1919;-57
2020/12/26 00:32:29;;;;;;;;;;;23.10;42.10;;;;;;1541930;74;811;-57
2020/12/26 00:34:31;;;;;;;;;;;23.00;42.10;;;;;;1531622;75;723;-59
2020/12/26 00:36:33;;;;;;;;;;;23.10;42.20;;;;;;1528659;74;721;-58
2020/12/26 00:38:35;;;;;;;;;;;23.10;42.10;;;;;;1528876;74;700;-59
2020/12/26 00:40:37;;;;;;;;;;;23.10;42.20;;;;;;1531304;74;1173;-57
2020/12/26 00:42:39;;;;;;;;;;;23.10;42.10;;;;;;1527347;74;675;-57
2020/12/26 00:44:41;;;;;;;;;;;23.10;42.10;;;;;;1532708;74;670;-57
2020/12/26 00:46:43;;;;;;;;;;;23.10;42.30;;;;;;1539550;74;721;-56
2020/12/26 00:48:45;;;;;;;;;;;23.10;42.30;;;;;;1535132;75;780;-56
2020/12/26 00:50:46;;;;;;;;;;;23.10;42.30;;;;;;1504016;77;1934;-57
2020/12/26 00:52:48;;;;;;;;;;;23.20;42.20;;;;;;1541900;74;652;-56
2020/12/26 00:54:50;;;;;;;;;;;23.20;42.30;;;;;;1539396;74;780;-56
2020/12/26 00:56:52;;;;;;;;;;;23.20;42.40;;;;;;1535363;74;668;-56
2020/12/26 00:58:54;;;;;;;;;;;23.20;42.40;;;;;;1534956;74;764;-57
2020/12/26 01:00:56;;;;;;;;;;;23.20;42.40;;;;;;1528233;74;1105;-56
2020/12/26 01:02:58;;;;;;;;;;;23.20;42.40;;;;;;1534679;75;694;-58
2020/12/26 01:05:00;;;;;;;;;;;23.20;42.30;;;;;;1532348;74;774;-56
2020/12/26 01:07:01;;;;;;;;;;;23.20;42.30;;;;;;1532955;74;672;-57
2020/12/26 01:09:03;;;;;;;;;;;23.20;42.50;;;;;;1536492;74;737;-56
2020/12/26 01:11:05;;;;;;;;;;;23.20;42.60;;;;;;1535479;74;1934;-57
2020/12/26 01:13:07;;;;;;;;;;;23.20;42.70;;;;;;1536589;74;730;-59
2020/12/26 01:15:09;;;;;;;;;;;23.10;42.70;;;;;;1532452;74;769;-57
2020/12/26 01:17:11;;;;;;;;;;;23.20;42.70;;;;;;1538482;74;791;-57
2020/12/26 01:19:13;;;;;;;;;;;23.20;42.70;;;;;;1533570;75;699;-56
2020/12/26 01:21:15;;;;;;;;;;;23.20;42.60;;;;;;1533190;75;1159;-57
2020/12/26 01:23:17;;;;;;;;;;;23.20;42.60;;;;;;1533400;74;801;-56
2020/12/26 01:25:18;;;;;;;;;;;23.20;42.50;;;;;;1532299;74;745;-57
2020/12/26 01:27:20;;;;;;;;;;;23.20;42.50;;;;;;1535101;74;672;-57
2020/12/26 01:29:22;;;;;;;;;;;23.20;42.30;;;;;;1532377;75;801;-59
2020/12/26 01:31:24;;;;;;;;;;;23.30;42.60;;;;;;1531459;74;1933;-57
2020/12/26 01:33:26;;;;;;;;;;;23.20;42.30;;;;;;1531102;74;669;-59
2020/12/26 01:35:28;;;;;;;;;;;23.20;42.50;;;;;;1539540;75;779;-57
2020/12/26 01:37:30;;;;;;;;;;;23.30;42.40;;;;;;1541385;74;789;-58
2020/12/26 01:39:32;;;;;;;;;;;23.30;42.60;;;;;;1533723;74;716;-56
2020/12/26 01:41:33;;;;;;;;;;;23.30;42.50;;;;;;1532690;74;1139;-56
2020/12/26 01:43:35;;;;;;;;;;;23.30;42.60;;;;;;1534882;74;734;-57
2020/12/26 01:45:37;;;;;;;;;;;23.20;42.50;;;;;;1530281;75;708;-56
2020/12/26 01:47:39;;;;;;;;;;;23.20;42.60;;;;;;1536604;75;712;-56
2020/12/26 01:49:41;;;;;;;;;;;23.30;42.60;;;;;;1532649;74;661;-58
2020/12/26 01:51:44;;;;;;;;;;;23.30;42.50;;;;;;1535367;74;1943;-58
2020/12/26 01:53:46;;;;;;;;;;;23.30;42.70;;;;;;1531891;74;726;-56
2020/12/26 01:55:48;;;;;;;;;;;23.40;42.70;;;;;;1529846;74;745;-58
2020/12/26 01:57:51;;;;;;;;;;;23.40;42.60;;;;;;1527618;74;718;-57
2020/12/26 01:59:52;;;;;;;;;;;23.40;42.60;;;;;;1530708;75;784;-59
2020/12/26 02:01:57;;;;;;;;;;;23.40;42.60;;;;;;1538178;74;1135;-57
2020/12/26 02:03:58;;;;;;;;;;;23.40;42.40;;;;;;1536935;74;1624;-56
2020/12/26 02:06:00;;;;;;;;;;;23.40;42.40;;;;;;1533499;74;741;-56
2020/12/26 02:08:02;;;;;;;;;;;23.40;42.60;;;;;;1535855;74;741;-56
2020/12/26 02:10:03;;;;;;;;;;;23.40;42.50;;;;;;1540045;75;782;-57
2020/12/26 02:12:05;;;;;;;;;;;23.40;42.60;;;;;;1540357;74;1917;-58
2020/12/26 02:14:07;;;;;;;;;;;23.40;42.60;;;;;;1546330;74;786;-57
2020/12/26 02:16:13;;;;;;;;;;;23.40;42.60;;;;;;1553622;74;792;-56
2020/12/26 02:18:13;;;;;;;;;;;23.40;42.60;;;;;;1535813;74;1553;-57
2020/12/26 02:20:15;;;;;;;;;;;23.40;42.60;;;;;;1553143;74;662;-57
2020/12/26 02:22:17;;;;;;;;;;;23.40;42.50;;;;;;1541982;74;757;-59
2020/12/26 02:24:19;;;;;;;;;;;23.40;42.70;;;;;;1547837;75;706;-57
2020/12/26 02:26:28;;;;;;;;;;;23.40;42.60;;;;;;1543346;74;839;-56
2020/12/26 02:28:29;;;;;;;;;;;23.40;42.60;;;;;;1548612;74;647;-57
2020/12/26 02:30:31;;;;;;;;;;;23.40;42.60;;;;;;1554109;74;1935;-57
2020/12/26 02:32:33;;;;;;;;;;;23.40;42.80;;;;;;1552929;74;785;-56
2020/12/26 02:34:35;;;;;;;;;;;23.40;42.90;;;;;;1549340;74;757;-56
2020/12/26 02:36:37;;;;;;;;;;;23.40;42.70;;;;;;1545225;74;712;-56
2020/12/26 02:38:39;;;;;;;;;;;23.40;42.70;;;;;;1546423;74;672;-56
2020/12/26 02:40:41;;;;;;;;;;;23.40;42.70;;;;;;1549148;74;1159;-58
2020/12/26 02:42:42;;;;;;;;;;;23.40;42.60;;;;;;1552275;75;1069;-58
2020/12/26 02:44:44;;;;;;;;;;;23.50;42.70;;;;;;1546635;74;808;-56
2020/12/26 02:46:50;;;;;;;;;;;23.40;42.70;;;;;;1539922;74;738;-58
2020/12/26 02:48:51;;;;;;;;;;;23.40;42.60;;;;;;1548314;75;830;-58
2020/12/26 02:50:54;;;;;;;;;;;23.40;42.70;;;;;;1546819;74;1961;-57
2020/12/26 02:52:56;;;;;;;;;;;23.40;42.70;;;;;;1550755;74;771;-57
2020/12/26 02:54:57;;;;;;;;;;;23.40;42.60;;;;;;1543190;74;722;-57
2020/12/26 02:56:59;;;;;;;;;;;23.40;42.70;;;;;;1545575;75;853;-58
2020/12/26 02:59:01;;;;;;;;;;;23.40;42.70;;;;;;1558001;74;655;-56
2020/12/26 03:01:03;;;;;;;;;;;23.40;42.80;;;;;;1547951;75;1116;-58
2020/12/26 03:03:05;;;;;;;;;;;23.40;42.80;;;;;;1555285;74;778;-55
2020/12/26 03:05:07;;;;;;;;;;;23.40;42.90;;;;;;1543895;74;808;-55
2020/12/26 03:07:09;;;;;;;;;;;23.40;43.00;;;;;;1547404;75;815;-55
2020/12/26 03:09:11;;;;;;;;;;;23.30;43.00;;;;;;1558656;74;695;-56
2020/12/26 03:11:13;;;;;;;;;;;23.20;42.90;;;;;;1546560;74;1936;-57
2020/12/26 03:13:14;;;;;;;;;;;23.30;42.90;;;;;;1556810;75;694;-57
2020/12/26 03:15:16;;;;;;;;;;;23.30;42.90;;;;;;1551928;74;739;-59
2020/12/26 03:17:18;;;;;;;;;;;23.40;42.80;;;;;;1552014;74;749;-56
2020/12/26 03:19:20;;;;;;;;;;;23.40;42.80;;;;;;1546267;74;716;-58
2020/12/26 03:21:22;;;;;;;;;;;23.40;42.70;;;;;;1545775;74;1159;-57
2020/12/26 03:23:24;;;;;;;;;;;23.50;42.70;;;;;;1540008;75;684;-58
2020/12/26 03:25:26;;;;;;;;;;;23.40;42.60;;;;;;1536876;75;769;-56
2020/12/26 03:27:27;;;;;;;;;;;23.40;42.60;;;;;;1546397;74;733;-56
2020/12/26 03:29:29;;;;;;;;;;;23.40;42.60;;;;;;1542554;74;766;-56
2020/12/26 03:31:31;;;;;;;;;;;23.30;42.60;;;;;;1551952;74;1931;-57
2020/12/26 03:33:33;;;;;;;;;;;23.40;42.50;;;;;;1541167;75;729;-58
2020/12/26 03:35:35;;;;;;;;;;;23.40;42.40;;;;;;1546292;74;771;-57
2020/12/26 03:37:37;;;;;;;;;;;23.40;42.30;;;;;;1547817;74;703;-58
2020/12/26 03:39:39;;;;;;;;;;;23.40;42.30;;;;;;1546686;74;683;-56
2020/12/26 03:41:41;;;;;;;;;;;23.40;42.30;;;;;;1545434;75;1143;-58
2020/12/26 03:43:43;;;;;;;;;;;23.40;42.30;;;;;;1539618;74;761;-57
2020/12/26 03:45:45;;;;;;;;;;;23.40;42.30;;;;;;1532038;74;774;-57
2020/12/26 03:47:47;;;;;;;;;;;23.30;42.40;;;;;;1543841;74;734;-59
2020/12/26 03:49:48;;;;;;;;;;;23.40;42.30;;;;;;1529834;74;707;-58
2020/12/26 03:51:50;;;;;;;;;;;23.30;42.30;;;;;;1539288;74;1930;-57
2020/12/26 03:53:52;;;;;;;;;;;23.20;42.30;;;;;;1534849;74;713;-56
2020/12/26 03:55:54;;;;;;;;;;;23.20;42.30;;;;;;1531612;75;722;-57
2020/12/26 03:57:56;;;;;;;;;;;23.20;42.30;;;;;;1531466;75;705;-57
2020/12/26 03:59:58;;;;;;;;;;;23.30;42.30;;;;;;1532311;74;738;-57
2020/12/26 04:02:00;;;;;;;;;;;23.30;42.30;;;;;;1537416;74;1129;-57
2020/12/26 04:04:02;;;;;;;;;;;23.20;42.20;;;;;;1542223;74;668;-57
2020/12/26 04:06:03;;;;;;;;;;;23.20;42.20;;;;;;1534108;74;779;-57
2020/12/26 04:08:05;;;;;;;;;;;23.20;42.30;;;;;;1543762;74;745;-58
2020/12/26 04:10:07;;;;;;;;;;;23.20;42.20;;;;;;1533959;74;766;-59
2020/12/26 04:12:09;;;;;;;;;;;23.20;42.20;;;;;;1534987;74;1957;-58
2020/12/26 04:14:11;;;;;;;;;;;23.20;42.10;;;;;;1539636;74;841;-58
2020/12/26 04:16:13;;;;;;;;;;;23.20;42.10;;;;;;1534094;74;814;-56
2020/12/26 04:18:15;;;;;;;;;;;23.20;41.90;;;;;;1533889;74;696;-56
2020/12/26 04:20:16;;;;;;;;;;;23.30;42.00;;;;;;1532811;75;790;-56
2020/12/26 04:22:18;;;;;;;;;;;23.30;41.90;;;;;;1535579;74;724;-56
2020/12/26 04:24:20;;;;;;;;;;;23.40;41.80;;;;;;1543098;75;727;-57
2020/12/26 04:26:22;;;;;;;;;;;23.30;41.90;;;;;;1534260;75;702;-57
2020/12/26 04:28:24;;;;;;;;;;;23.30;41.80;;;;;;1534701;74;771;-57
2020/12/26 04:30:26;;;;;;;;;;;23.40;41.70;;;;;;1534194;74;1148;-57
2020/12/26 04:32:28;;;;;;;;;;;23.30;41.70;;;;;;1535238;74;1959;-59
2020/12/26 04:34:30;;;;;;;;;;;23.40;41.70;;;;;;1531549;74;782;-58
2020/12/26 04:36:31;;;;;;;;;;;23.30;41.70;;;;;;1541625;75;913;-58
2020/12/26 04:38:33;;;;;;;;;;;23.30;41.80;;;;;;1535655;74;588;-58
2020/12/26 04:40:35;;;;;;;;;;;23.20;41.60;;;;;;1535766;74;1120;-58
2020/12/26 04:42:38;;;;;;;;;;;23.20;41.80;;;;;;1539650;75;877;-59
2020/12/26 04:44:40;;;;;;;;;;;23.10;41.80;;;;;;1531676;74;727;-57
2020/12/26 04:46:42;;;;;;;;;;;23.20;41.80;;;;;;1534862;74;784;-58
2020/12/26 04:48:51;;;;;;;;;;;23.20;41.80;;;;;;1534204;74;707;-58
2020/12/26 04:50:54;;;;;;;;;;;23.20;41.80;;;;;;1533243;74;1175;-57
2020/12/26 04:53:00;;;;;;;;;;;23.20;41.80;;;;;;1536917;75;1952;-57
2020/12/26 04:55:02;;;;;;;;;;;23.20;41.70;;;;;;1535110;74;697;-57
2020/12/26 04:57:04;;;;;;;;;;;23.20;41.80;;;;;;1538666;75;711;-57
2020/12/26 04:59:07;;;;;;;;;;;23.20;41.80;;;;;;1530691;75;720;-59
2020/12/26 05:01:09;;;;;;;;;;;23.30;41.70;;;;;;1532493;74;1121;-58
2020/12/26 05:03:11;;;;;;;;;;;23.30;41.60;;;;;;1540894;74;745;-59
2020/12/26 05:05:13;;;;;;;;;;;23.30;41.50;;;;;;1536827;74;730;-58
2020/12/26 05:07:15;;;;;;;;;;;23.20;41.50;;;;;;1533975;74;683;-58
2020/12/26 05:09:17;;;;;;;;;;;23.30;41.50;;;;;;1537006;75;745;-58
2020/12/26 05:11:22;;;;;;;;;;;23.20;41.30;;;;;;1532353;75;1923;-59
2020/12/26 05:13:24;;;;;;;;;;;23.30;41.40;;;;;;1539396;75;593;-58
2020/12/26 05:15:26;;;;;;;;;;;23.30;41.40;;;;;;1531183;74;753;-57
2020/12/26 05:17:28;;;;;;;;;;;23.30;41.30;;;;;;1530284;74;778;-57
2020/12/26 05:19:30;;;;;;;;;;;23.30;41.30;;;;;;1538373;74;792;-56
2020/12/26 05:21:32;;;;;;;;;;;23.20;41.30;;;;;;1537705;74;1166;-57
2020/12/26 05:23:35;;;;;;;;;;;23.30;41.50;;;;;;1539045;74;777;-56
2020/12/26 05:25:40;;;;;;;;;;;23.20;41.20;;;;;;1532349;74;776;-57
2020/12/26 05:27:42;;;;;;;;;;;23.30;41.30;;;;;;1528466;74;729;-56
2020/12/26 05:29:44;;;;;;;;;;;23.20;41.10;;;;;;1535348;74;701;-56
2020/12/26 05:31:59;;;;;;;;;;;23.30;41.10;;;;;;1533209;75;1941;-56
2020/12/26 05:34:02;;;;;;;;;;;23.20;41.00;;;;;;1535303;74;800;-55
2020/12/26 05:36:05;;;;;;;;;;;23.30;41.00;;;;;;1533492;74;1798;-57
2020/12/26 05:38:13;;;;;;;;;;;23.30;41.10;;;;;;1546464;75;671;-57
2020/12/26 05:40:16;;;;;;;;;;;23.30;41.10;;;;;;1534088;74;703;-57
2020/12/26 05:42:19;;;;;;;;;;;23.30;41.00;;;;;;1535886;74;2077;-57
2020/12/26 05:44:22;;;;;;;;;;;23.30;41.00;;;;;;1538006;74;728;-56
2020/12/26 05:46:24;;;;;;;;;;;23.30;41.00;;;;;;1532440;74;1685;-57
2020/12/26 05:48:27;;;;;;;;;;;23.30;41.00;;;;;;1537720;74;717;-59
2020/12/26 05:50:29;;;;;;;;;;;23.30;41.00;;;;;;1531745;75;1172;-57
2020/12/26 05:52:30;;;;;;;;;;;23.30;40.90;;;;;;1549135;74;1951;-55
2020/12/26 05:54:32;;;;;;;;;;;23.30;40.80;;;;;;1551663;74;765;-56
2020/12/26 05:56:36;;;;;;;;;;;23.40;40.70;;;;;;1544930;75;789;-56
2020/12/26 05:58:39;;;;;;;;;;;23.30;40.80;;;;;;1548713;74;776;-59
2020/12/26 06:00:41;;;;;;;;;;;23.30;40.80;;;;;;1542440;74;1956;-58
2020/12/26 06:02:43;;;;;;;;;;;23.30;40.80;;;;;;1545536;75;721;-56
2020/12/26 06:04:55;;;;;;;;;;;23.30;40.70;;;;;;1542617;75;673;-57
2020/12/26 06:06:57;;;;;;;;;;;23.30;40.70;;;;;;1555142;74;770;-57
2020/12/26 06:08:59;;;;;;;;;;;23.30;40.70;;;;;;1542409;74;734;-56
2020/12/26 06:11:04;;;;;;;;;;;23.30;40.60;;;;;;1551754;75;1177;-55
2020/12/26 06:13:06;;;;;;;;;;;23.30;40.60;;;;;;1545754;74;1934;-56
2020/12/26 06:15:08;;;;;;;;;;;23.40;40.60;;;;;;1542875;74;720;-56
2020/12/26 06:17:10;;;;;;;;;;;23.40;40.50;;;;;;1542080;74;694;-56
2020/12/26 06:19:12;;;;;;;;;;;23.40;40.50;;;;;;1551999;74;780;-56
2020/12/26 06:21:13;;;;;;;;;;;23.40;40.50;;;;;;1512399;76;1144;-57
2020/12/26 06:23:17;;;;;;;;;;;23.40;40.50;;;;;;1538439;74;722;-57
2020/12/26 06:25:20;;;;;;;;;;;23.40;40.60;;;;;;1542906;74;1704;-57
2020/12/26 06:27:23;;;;;;;;;;;23.40;40.50;;;;;;1555562;75;1231;-56
2020/12/26 06:29:24;;;;;;;;;;;23.40;40.50;;;;;;1544776;75;784;-56
2020/12/26 06:31:26;;;;;;;;;;;23.30;40.50;;;;;;1564670;74;1159;-59
2020/12/26 06:33:29;;;;;;;;;;;23.40;40.50;;;;;;1562233;75;1950;-56
2020/12/26 06:35:31;;;;;;;;;;;23.40;40.50;;;;;;1556579;75;700;-56
2020/12/26 06:37:33;;;;;;;;;;;23.30;40.50;;;;;;1563944;75;718;-57
2020/12/26 06:39:35;;;;;;;;;;;23.40;40.40;;;;;;1547783;74;725;-58
2020/12/26 06:41:36;;;;;;;;;;;23.40;40.30;;;;;;1554238;75;1154;-56
2020/12/26 06:43:42;;;;;;;;;;;23.40;40.30;;;;;;1557567;74;713;-57
2020/12/26 06:45:44;;;;;;;;;;;23.40;40.20;;;;;;1549205;75;772;-55
2020/12/26 06:47:46;;;;;;;;;;;23.40;40.30;;;;;;1541561;74;801;-55
2020/12/26 06:49:47;;;;;;;;;;;23.40;40.20;;;;;;1544135;74;732;-57
2020/12/26 06:51:50;;;;;;;;;;;23.40;40.10;;;;;;1545768;74;1143;-56
2020/12/26 06:53:52;;;;;;;;;;;23.40;40.10;;;;;;1549843;74;1855;-56
2020/12/26 06:55:54;;;;;;;;;;;23.40;40.10;;;;;;1544790;74;793;-56
2020/12/26 06:57:55;;;;;;;;;;;23.40;40.00;;;;;;1553684;74;788;-56
2020/12/26 06:59:57;;;;;;;;;;;23.40;40.10;;;;;;1540300;75;721;-58
2020/12/26 07:02:06;;;;;;;;;;;23.40;40.20;;;;;;1540101;74;1120;-59
2020/12/26 07:04:09;;;;;;;;;;;23.40;40.20;;;;;;1532947;74;707;-56
2020/12/26 07:06:11;;;;;;;;;;;23.40;40.30;;;;;;1530804;75;701;-56
2020/12/26 07:08:22;;;;;;;;;;;23.40;40.30;;;;;;1538074;75;683;-57
2020/12/26 07:10:26;;;;;;;;;;;23.40;40.30;;;;;;1528785;75;1132;-56
2020/12/26 07:12:29;;;;;;;;;;;23.40;40.20;;;;;;1531908;74;1921;-56
2020/12/26 07:14:35;;;;;;;;;;;23.40;40.10;;;;;;1537679;74;1748;-57
2020/12/26 07:16:40;;;;;;;;;;;23.50;40.20;;;;;;1529798;75;743;-56
2020/12/26 07:18:42;;;;;;;;;;;23.40;40.00;;;;;;1540655;75;799;-56
2020/12/26 07:20:45;;;;;;;;;;;23.50;40.20;;;;;;1537829;74;1139;-57
2020/12/26 07:22:47;;;;;;;;;;;23.50;40.20;;;;;;1533382;75;1789;-56
2020/12/26 07:24:50;;;;;;;;;;;23.50;40.20;;;;;;1538854;75;889;-56
2020/12/26 07:26:52;;;;;;;;;;;23.40;40.00;;;;;;1544540;75;798;-56
2020/12/26 07:28:55;;;;;;;;;;;23.40;40.00;;;;;;1532935;75;715;-57
2020/12/26 07:30:59;;;;;;;;;;;23.50;40.10;;;;;;1528713;75;1764;-56
2020/12/26 07:33:01;;;;;;;;;;;23.50;40.00;;;;;;1534247;75;1945;-55
2020/12/26 07:35:04;;;;;;;;;;;23.50;40.00;;;;;;1534242;73;825;-55
2020/12/26 07:37:06;;;;;;;;;;;23.50;40.00;;;;;;1528223;75;1519;-56
2020/12/26 07:39:08;;;;;;;;;;;23.50;39.90;;;;;;1536960;75;824;-57
2020/12/26 07:41:10;;;;;;;;;;;23.50;39.90;;;;;;1533900;74;1179;-56
2020/12/26 07:43:16;;;;;;;;;;;23.50;39.90;;;;;;1533078;75;647;-57
2020/12/26 07:45:18;;;;;;;;;;;23.40;39.70;;;;;;1531368;75;1012;-57
2020/12/26 07:47:20;;;;;;;;;;;23.50;39.80;;;;;;1546003;75;714;-57
2020/12/26 07:49:23;;;;;;;;;;;23.40;39.70;;;;;;1533914;74;710;-58
2020/12/26 07:51:25;;;;;;;;;;;23.50;39.90;;;;;;1539389;74;1176;-57
2020/12/26 07:53:26;;;;;;;;;;;23.50;39.90;;;;;;1536419;74;1941;-58
2020/12/26 07:55:29;;;;;;;;;;;23.50;39.90;;;;;;1531758;74;796;-57
2020/12/26 07:57:31;;;;;;;;;;;23.50;39.80;;;;;;1544126;74;730;-57
2020/12/26 07:59:33;;;;;;;;;;;23.50;39.90;;;;;;1534224;74;1052;-56
2020/12/26 08:01:35;;;;;;;;;;;23.50;39.90;;;;;;1534726;75;1167;-56
2020/12/26 08:03:37;;;;;;;;;;;23.50;39.80;;;;;;1540227;74;729;-57
2020/12/26 08:05:39;;;;;;;;;;;23.50;39.80;;;;;;1533190;75;720;-56
2020/12/26 08:07:41;;;;;;;;;;;23.60;39.70;;;;;;1537217;74;763;-56
2020/12/26 08:09:44;;;;;;;;;;;23.50;39.70;;;;;;1534617;74;706;-57
2020/12/26 08:11:46;;;;;;;;;;;23.50;39.80;;;;;;1525735;74;1531;-57
2020/12/26 08:14:00;;;;;;;;;;;23.50;40.00;;;;;;1534289;74;1937;-56
2020/12/26 08:16:03;;;;;;;;;;;23.50;40.10;;;;;;1531498;74;669;-58
2020/12/26 08:18:05;;;;;;;;;;;23.50;40.10;;;;;;1537595;74;674;-57
2020/12/26 08:20:07;;;;;;;;;;;23.50;40.20;;;;;;1533449;74;800;-56
2020/12/26 08:22:09;;;;;;;;;;;23.40;40.10;;;;;;1540082;75;1163;-56
2020/12/26 08:24:10;;;;;;;;;;;23.40;40.00;;;;;;1545827;74;747;-59
2020/12/26 08:26:12;;;;;;;;;;;23.40;40.00;;;;;;1539814;74;667;-56
2020/12/26 08:28:17;;;;;;;;;;;23.40;40.00;;;;;;1534619;74;754;-59
2020/12/26 08:30:23;;;;;;;;;;;23.50;40.00;;;;;;1536584;75;1145;-57
2020/12/26 08:32:26;;;;;;;;;;;23.50;40.00;;;;;;1531218;75;730;-58
2020/12/26 08:34:32;;;;;;;;;;;23.50;40.00;;;;;;1530331;74;1818;-56
2020/12/26 08:36:38;;;;;;;;;;;23.50;40.00;;;;;;1535020;74;1647;-56
2020/12/26 08:38:44;;;;;;;;;;;23.50;40.00;;;;;;1529050;75;724;-57
2020/12/26 08:40:46;;;;;;;;;;;23.50;40.00;;;;;;1528898;74;1192;-57
2020/12/26 08:42:48;;;;;;;;;;;23.50;40.10;;;;;;1534685;74;804;-57
2020/12/26 08:44:50;;;;;;;;;;;23.50;40.10;;;;;;1543767;75;752;-58
2020/12/26 08:46:52;;;;;;;;;;;23.50;40.00;;;;;;1535014;74;714;-58
2020/12/26 08:48:55;;;;;;;;;;;23.50;40.00;;;;;;1545615;74;792;-57
2020/12/26 08:50:57;;;;;;;;;;;23.60;39.90;;;;;;1540364;74;1116;-58
2020/12/26 08:53:06;;;;;;;;;;;23.60;39.80;;;;;;1537802;74;1925;-56
2020/12/26 08:55:09;;;;;;;;;;;23.50;39.80;;;;;;1541667;74;782;-56
2020/12/26 08:57:20;;;;;;;;;;;23.50;39.80;;;;;;1529275;74;738;-58
2020/12/26 08:59:28;;;;;;;;;;;23.60;39.80;;;;;;1533075;74;686;-58
2020/12/26 09:01:30;;;;;;;;;;;23.60;39.80;;;;;;1538074;75;1147;-59
2020/12/26 09:03:32;;;;;;;;;;;23.60;39.70;;;;;;1542436;75;741;-59
2020/12/26 09:05:34;;;;;;;;;;;23.60;39.80;;;;;;1544512;74;756;-58
2020/12/26 09:07:36;;;;;;;;;;;23.50;39.90;;;;;;1532801;75;721;-58
2020/12/26 09:09:38;;;;;;;;;;;23.50;39.90;;;;;;1531635;74;694;-57
2020/12/26 09:11:40;;;;;;;;;;;23.60;39.80;;;;;;1532183;75;1172;-59
2020/12/26 09:13:49;;;;;;;;;;;23.60;39.90;;;;;;1535472;74;1928;-58
2020/12/26 09:15:52;;;;;;;;;;;23.50;39.90;;;;;;1531118;74;1478;-58
2020/12/26 09:17:54;;;;;;;;;;;23.50;40.00;;;;;;1534650;75;714;-60
2020/12/26 09:19:57;;;;;;;;;;;23.50;40.00;;;;;;1530656;74;825;-57
2020/12/26 09:22:08;;;;;;;;;;;23.50;40.00;;;;;;1534054;74;1108;-58
2020/12/26 09:24:17;;;;;;;;;;;23.50;40.10;;;;;;1539296;74;885;-57
2020/12/26 09:26:19;;;;;;;;;;;23.60;40.10;;;;;;1559083;74;785;-56
2020/12/26 09:28:21;;;;;;;;;;;23.50;40.10;;;;;;1554874;74;722;-55
2020/12/26 09:30:23;;;;;;;;;;;23.50;40.10;;;;;;1546275;75;1128;-56
2020/12/26 09:32:25;;;;;;;;;;;23.50;40.10;;;;;;1548700;74;705;-57
2020/12/26 09:34:27;;;;;;;;;;;23.50;40.00;;;;;;1558421;74;1945;-56
2020/12/26 09:36:29;;;;;;;;;;;23.50;40.00;;;;;;1551805;74;669;-57
2020/12/26 09:38:30;;;;;;;;;;;23.60;40.00;;;;;;1537285;74;714;-55
2020/12/26 09:40:33;;;;;;;;;;;23.50;39.90;;;;;;1569943;75;1107;-57
2020/12/26 09:42:35;;;;;;;;;;;23.60;39.90;;;;;;1556350;74;714;-55
2020/12/26 09:44:37;;;;;;;;;;;23.50;40.00;;;;;;1554993;74;757;-56
2020/12/26 09:46:39;;;;;;;;;;;23.50;39.90;;;;;;1554037;74;771;-56
2020/12/26 09:48:41;;;;;;;;;;;23.50;39.90;;;;;;1538969;74;720;-56
2020/12/26 09:50:43;;;;;;;;;;;23.70;40.00;;;;;;1548277;74;1151;-58
2020/12/26 09:52:45;;;;;;;;;;;23.60;39.80;;;;;;1558980;75;670;-58
2020/12/26 09:54:47;;;;;;;;;;;23.60;39.80;;;;;;1539418;74;1935;-56
2020/12/26 09:56:48;;;;;;;;;;;23.60;40.00;;;;;;1545054;75;729;-56
2020/12/26 09:58:50;;;;;;;;;;;23.50;39.90;;;;;;1542142;75;710;-57
2020/12/26 10:00:52;;;;;;;;;;;23.50;40.10;;;;;;1557477;74;1166;-56
2020/12/26 10:02:54;;;;;;;;;;;23.60;40.00;;;;;;1558765;75;651;-55
2020/12/26 10:04:56;;;;;;;;;;;23.60;39.70;;;;;;1567790;74;768;-55
2020/12/26 10:06:58;;;;;;;;;;;23.60;39.60;;;;;;1536916;74;734;-56
2020/12/26 10:09:00;;;;;;;;;;;23.60;39.50;;;;;;1546068;74;754;-58
2020/12/26 10:11:01;;;;;;;;;;;23.60;39.50;;;;;;1552307;74;1204;-56
2020/12/26 10:13:03;;;;;;;;;;;23.60;39.40;;;;;;1567566;75;707;-54
2020/12/26 10:15:05;;;;;;;;;;;23.60;39.40;;;;;;1549513;75;764;-58
2020/12/26 10:17:07;;;;;;;;;;;23.50;39.40;;;;;;1550423;75;757;-56
2020/12/26 10:19:09;;;;;;;;;;;23.60;39.40;;;;;;1564818;75;667;-56
2020/12/26 10:21:12;;;;;;;;;;;23.60;39.30;;;;;;1552760;74;1155;-57
2020/12/26 10:23:14;;;;;;;;;;;23.60;39.20;;;;;;1556508;74;1656;-58
2020/12/26 10:25:16;;;;;;;;;;;23.60;39.20;;;;;;1561633;74;725;-57
2020/12/26 10:27:18;;;;;;;;;;;23.60;38.40;;;;;;1539021;74;710;-57
2020/12/26 10:29:20;;;;;;;;;;;23.60;37.40;;;;;;1553380;74;689;-57
2020/12/26 10:31:23;;;;;;;;;;;23.60;36.60;;;;;;1550916;74;1107;-57
2020/12/26 10:33:26;;;;;;;;;;;23.50;35.90;;;;;;1544983;75;1935;-57
2020/12/26 10:35:28;;;;;;;;;;;23.50;35.20;;;;;;1547050;74;707;-59
2020/12/26 10:37:30;;;;;;;;;;;23.50;34.70;;;;;;1541970;75;761;-59
2020/12/26 10:39:31;;;;;;;;;;;23.40;34.30;;;;;;1549739;74;723;-57
2020/12/26 10:41:33;;;;;;;;;;;23.40;33.90;;;;;;1562389;74;1154;-58
2020/12/26 10:43:35;;;;;;;;;;;23.40;33.60;;;;;;1547383;74;792;-58
2020/12/26 10:45:37;;;;;;;;;;;23.30;33.30;;;;;;1547898;74;683;-58
2020/12/26 10:47:39;;;;;;;;;;;23.20;33.00;;;;;;1563946;74;783;-57
2020/12/26 10:49:41;;;;;;;;;;;23.20;32.80;;;;;;1557292;74;727;-58
2020/12/26 10:51:44;;;;;;;;;;;23.20;32.70;;;;;;1552347;74;1142;-58
2020/12/26 10:53:46;;;;;;;;;;;23.20;32.60;;;;;;1542939;74;1927;-57
2020/12/26 10:55:48;;;;;;;;;;;23.10;32.20;;;;;;1541495;74;740;-59
2020/12/26 10:57:50;;;;;;;;;;;23.10;32.20;;;;;;1540927;75;767;-58
2020/12/26 10:59:52;;;;;;;;;;;23.00;32.00;;;;;;1555311;74;693;-58
2020/12/26 11:01:54;;;;;;;;;;;23.00;31.80;;;;;;1555670;74;1130;-58
2020/12/26 11:03:55;;;;;;;;;;;23.00;31.70;;;;;;1539808;75;718;-58
2020/12/26 11:05:59;;;;;;;;;;;22.90;31.50;;;;;;1550340;75;788;-58
2020/12/26 11:08:01;;;;;;;;;;;22.90;31.50;;;;;;1543767;74;798;-57
2020/12/26 11:10:03;;;;;;;;;;;22.90;31.20;;;;;;1551827;74;737;-58
2020/12/26 11:12:06;;;;;;;;;;;22.90;31.30;;;;;;1545681;74;1141;-57
2020/12/26 11:14:08;;;;;;;;;;;22.80;31.20;;;;;;1546799;74;1982;-58
2020/12/26 11:16:14;;;;;;;;;;;22.90;31.40;;;;;;1554175;74;672;-58
2020/12/26 11:18:16;;;;;;;;;;;22.80;31.50;;;;;;1544190;74;1150;-58
2020/12/26 11:20:18;;;;;;;;;;;22.80;31.70;;;;;;1544353;75;822;-58
2020/12/26 11:22:20;;;;;;;;;;;22.70;31.90;;;;;;1552788;74;1205;-58
2020/12/26 11:24:22;;;;;;;;;;;22.80;31.80;;;;;;1540164;74;671;-57
2020/12/26 11:26:24;;;;;;;;;;;22.70;31.70;;;;;;1561080;75;755;-57
2020/12/26 11:28:26;;;;;;;;;;;22.70;31.60;;;;;;1542738;74;731;-58
2020/12/26 11:30:28;;;;;;;;;;;22.60;31.40;;;;;;1539059;74;1085;-58
2020/12/26 11:32:30;;;;;;;;;;;22.70;31.30;;;;;;1540019;75;714;-57
2020/12/26 11:34:32;;;;;;;;;;;22.60;31.20;;;;;;1540134;74;1955;-58
2020/12/26 11:36:34;;;;;;;;;;;22.60;31.20;;;;;;1568075;74;777;-57
2020/12/26 11:38:36;;;;;;;;;;;22.60;31.10;;;;;;1545067;74;1058;-58
2020/12/26 11:40:38;;;;;;;;;;;22.60;31.00;;;;;;1561413;75;1167;-57
2020/12/26 11:42:39;;;;;;;;;;;22.50;30.80;;;;;;1563201;75;611;-58
2020/12/26 11:44:41;;;;;;;;;;;22.50;30.80;;;;;;1549273;75;751;-58
2020/12/26 11:46:43;;;;;;;;;;;22.50;30.70;;;;;;1549086;74;727;-59
2020/12/26 11:48:45;;;;;;;;;;;22.50;30.70;;;;;;1548569;74;726;-58
2020/12/26 11:50:47;;;;;;;;;;;22.50;30.50;;;;;;1550950;74;1153;-57
2020/12/26 11:52:49;;;;;;;;;;;22.50;30.50;;;;;;1552161;74;727;-58
2020/12/26 11:54:51;;;;;;;;;;;22.40;30.20;;;;;;1554440;75;1953;-58
2020/12/26 11:56:53;;;;;;;;;;;22.40;30.10;;;;;;1547258;74;740;-58
2020/12/26 11:58:55;;;;;;;;;;;22.40;30.10;;;;;;1548000;74;693;-59
2020/12/26 12:00:56;;;;;;;;;;;22.40;30.00;;;;;;1544285;74;1157;-58
2020/12/26 12:02:58;;;;;;;;;;;22.40;30.00;;;;;;1552553;74;722;-57
2020/12/26 12:05:00;;;;;;;;;;;22.30;29.90;;;;;;1546862;74;737;-58
2020/12/26 12:07:02;;;;;;;;;;;22.30;29.80;;;;;;1541087;74;942;-58
2020/12/26 12:09:04;;;;;;;;;;;22.30;29.80;;;;;;1540647;74;699;-58
2020/12/26 12:11:06;;;;;;;;;;;22.30;29.70;;;;;;1537240;74;1115;-57